Time;durP1;ratioP1;P1;durP2;ratioP2;P2;SDS_P1;SDS_P2;PMS_P1;PMS_P2;Temp;Humidity;BMP_temperature;BMP_pressure;BME280_temperature;BME280_humidity;BME280_pressure;Samples;Min_cycle;Max_cycle;Signal;HPM_P1;HPM_P2
2020/12/18 00:02:07;;;;;;;41.00;22.25;;;6.90;99.90;;;;;;4978587;28;20113;-88
2020/12/18 00:04:33;;;;;;;40.05;21.90;;;6.90;99.90;;;;;;4978850;28;20113;-85
2020/12/18 00:06:59;;;;;;;41.95;22.27;;;6.90;99.90;;;;;;4978457;28;20038;-87
2020/12/18 00:09:24;;;;;;;37.80;23.50;;;7.00;99.90;;;;;;4995734;28;20034;-86
2020/12/18 00:11:53;;;;;;;40.63;23.45;;;7.00;99.90;;;;;;4996038;28;20026;-87
2020/12/18 00:14:19;;;;;;;40.45;23.58;;;7.10;99.90;;;;;;4995921;28;20410;-87
2020/12/18 00:16:45;;;;;;;40.05;23.70;;;7.00;99.90;;;;;;4978180;28;20560;-87
2020/12/18 00:19:11;;;;;;;46.45;25.90;;;7.10;99.90;;;;;;4978414;28;20034;-87
2020/12/18 00:21:36;;;;;;;48.47;26.75;;;7.00;99.90;;;;;;4978394;28;20062;-87
2020/12/18 00:24:02;;;;;;;48.17;25.27;;;7.00;99.90;;;;;;4978409;28;20023;-85
2020/12/18 00:26:34;;;;;;;42.17;24.48;;;6.90;99.90;;;;;;4978351;28;20475;-88
2020/12/18 00:29:00;;;;;;;44.45;25.35;;;7.00;99.90;;;;;;4978833;28;20438;-87
2020/12/18 00:31:29;;;;;;;50.38;26.88;;;7.00;99.90;;;;;;4995249;28;20459;-86
2020/12/18 00:33:55;;;;;;;47.33;25.42;;;7.00;99.90;;;;;;4978125;28;20022;-85
2020/12/18 00:36:26;;;;;;;35.20;21.40;;;7.00;99.90;;;;;;4978109;28;20413;-86
2020/12/18 00:38:58;;;;;;;40.58;21.48;;;6.90;99.90;;;;;;4995322;28;20089;-86
2020/12/18 00:41:24;;;;;;;38.53;21.90;;;6.90;99.90;;;;;;4978469;28;20698;-89
2020/12/18 00:43:53;;;;;;;31.88;18.30;;;7.00;99.90;;;;;;4978214;28;20470;-86
2020/12/18 00:46:19;;;;;;;37.38;20.02;;;7.10;99.90;;;;;;4977712;28;20543;-87
2020/12/18 00:48:45;;;;;;;33.50;18.23;;;7.10;99.90;;;;;;4977731;28;20513;-84
2020/12/18 00:51:20;;;;;;;37.13;20.10;;;6.90;99.90;;;;;;4977833;28;20105;-88
2020/12/18 00:53:46;;;;;;;32.88;20.25;;;6.90;99.90;;;;;;4977618;28;20042;-86
2020/12/18 00:56:12;;;;;;;34.15;19.52;;;7.10;99.90;;;;;;4977618;28;20023;-87
2020/12/18 00:58:41;;;;;;;32.72;19.00;;;7.00;99.90;;;;;;4977639;28;20034;-88
2020/12/18 01:01:07;;;;;;;32.55;19.25;;;7.10;99.90;;;;;;4977302;28;20066;-85
2020/12/18 01:03:33;;;;;;;31.63;18.33;;;7.00;99.90;;;;;;4994793;28;20062;-85
2020/12/18 01:06:04;;;;;;;35.22;20.13;;;7.10;99.90;;;;;;4977222;28;20184;-85
2020/12/18 01:08:30;;;;;;;36.53;18.85;;;6.90;99.90;;;;;;4994929;28;20030;-85
2020/12/18 01:10:56;;;;;;;38.10;17.88;;;6.80;99.90;;;;;;4976736;28;20164;-86
2020/12/18 01:13:21;;;;;;;31.52;16.88;;;6.80;99.90;;;;;;4994664;28;20030;-87
2020/12/18 01:15:47;;;;;;;33.38;18.38;;;6.70;99.90;;;;;;4977332;28;20165;-84
2020/12/18 01:18:13;;;;;;;30.38;17.15;;;7.00;99.90;;;;;;4994680;28;20505;-85
2020/12/18 01:20:59;;;;;;;34.42;17.88;;;6.90;99.90;;;;;;4977303;28;20034;-84
2020/12/18 01:23:25;;;;;;;31.98;18.63;;;6.90;99.90;;;;;;4976942;28;20092;-85
2020/12/18 01:25:50;;;;;;;37.45;18.80;;;6.90;99.90;;;;;;4976606;28;20117;-88
2020/12/18 01:28:16;;;;;;;33.28;19.33;;;6.80;99.90;;;;;;4976740;28;20057;-84
2020/12/18 01:30:42;;;;;;;31.33;18.05;;;6.80;99.90;;;;;;4976675;28;20027;-83
2020/12/18 01:33:11;;;;;;;36.13;19.67;;;6.80;99.90;;;;;;4976627;28;20602;-84
2020/12/18 01:35:37;;;;;;;30.50;17.25;;;6.80;99.90;;;;;;4981480;28;20027;-86
2020/12/18 01:38:02;;;;;;;28.27;16.02;;;6.90;99.90;;;;;;4976409;28;20092;-85
2020/12/18 01:40:28;;;;;;;30.77;17.27;;;7.00;99.90;;;;;;4994469;28;20098;-86
2020/12/18 01:42:54;;;;;;;31.80;17.17;;;7.10;99.90;;;;;;4976338;28;20104;-84
2020/12/18 01:45:20;;;;;;;30.60;17.92;;;6.90;99.90;;;;;;4976572;28;20054;-85
2020/12/18 01:47:46;;;;;;;30.02;19.02;;;7.10;99.90;;;;;;4976567;28;20029;-86
2020/12/18 01:50:12;;;;;;;30.58;16.85;;;7.00;99.90;;;;;;4976225;28;20030;-85
2020/12/18 01:52:38;;;;;;;31.90;17.92;;;6.80;99.90;;;;;;4976712;28;20519;-86
2020/12/18 01:55:07;;;;;;;29.15;15.95;;;6.90;99.90;;;;;;4976663;28;20470;-87
2020/12/18 01:57:35;;;;;;;30.00;17.10;;;6.90;99.90;;;;;;4976685;28;20105;-86
2020/12/18 02:00:06;;;;;;;31.38;16.33;;;6.80;99.90;;;;;;4993727;28;20054;-84
2020/12/18 02:02:32;;;;;;;27.48;15.93;;;6.90;99.90;;;;;;4993756;28;20030;-86
2020/12/18 02:04:58;;;;;;;33.88;17.85;;;6.80;99.90;;;;;;4976165;28;20082;-88
2020/12/18 02:07:29;;;;;;;31.15;16.48;;;6.70;99.90;;;;;;4976327;28;20145;-86
2020/12/18 02:09:56;;;;;;;34.90;17.67;;;6.60;99.90;;;;;;4976143;28;20022;-88
2020/12/18 02:12:22;;;;;;;31.20;16.38;;;6.60;99.90;;;;;;4976661;28;20394;-88
2020/12/18 02:14:53;;;;;;;30.00;16.77;;;6.50;99.90;;;;;;4976646;28;20483;-87
2020/12/18 02:17:19;;;;;;;33.10;17.02;;;6.50;99.90;;;;;;4976526;28;20034;-88
2020/12/18 02:19:54;;;;;;;34.10;18.13;;;6.60;99.90;;;;;;4976312;28;20029;-86
2020/12/18 02:22:50;;;;;;;30.50;17.30;;;6.50;99.90;;;;;;4976684;28;20030;-85
2020/12/18 02:25:14;;;;;;;28.60;15.80;;;6.60;99.90;;;;;;4991957;28;20030;-87
2020/12/18 02:27:43;;;;;;;33.40;17.85;;;6.40;99.90;;;;;;4993478;28;20456;-82
2020/12/18 02:30:16;;;;;;;35.13;18.73;;;6.40;99.90;;;;;;4992164;28;20391;-87
2020/12/18 02:32:42;;;;;;;29.05;16.85;;;6.50;99.90;;;;;;4976661;28;20121;-87
2020/12/18 02:35:08;;;;;;;31.90;17.65;;;6.50;99.90;;;;;;4976040;28;20118;-85
2020/12/18 02:37:43;;;;;;;32.13;17.08;;;6.50;99.90;;;;;;4976241;28;20494;-85
2020/12/18 02:40:29;;;;;;;33.97;17.05;;;6.30;99.90;;;;;;4976146;28;20039;-86
2020/12/18 02:42:54;;;;;;;35.50;18.98;;;6.30;99.90;;;;;;4975657;28;20050;-85
2020/12/18 02:45:21;;;;;;;33.25;17.23;;;6.30;99.90;;;;;;4975494;28;20387;-87
2020/12/18 02:47:47;;;;;;;30.30;17.40;;;6.30;99.90;;;;;;4975772;28;20046;-86
2020/12/18 02:50:15;;;;;;;33.03;16.77;;;6.30;99.90;;;;;;4976099;28;20022;-86
2020/12/18 02:52:41;;;;;;;34.63;18.35;;;6.30;99.90;;;;;;4975901;28;20129;-86
2020/12/18 02:55:07;;;;;;;34.53;16.50;;;6.30;99.90;;;;;;4975123;28;20379;-84
2020/12/18 02:57:32;;;;;;;36.78;18.05;;;6.20;99.90;;;;;;4992658;28;20034;-86
2020/12/18 02:59:58;;;;;;;36.97;17.88;;;6.20;99.90;;;;;;4975299;28;20034;-86
2020/12/18 03:02:35;;;;;;;28.88;16.77;;;6.20;99.90;;;;;;4975577;28;20030;-85
2020/12/18 03:05:02;;;;;;;35.05;16.48;;;6.30;99.90;;;;;;4975795;28;20113;-83
2020/12/18 03:07:30;;;;;;;30.67;16.35;;;6.20;99.90;;;;;;4975500;28;20478;-88
2020/12/18 03:10:00;;;;;;;29.02;16.35;;;6.20;99.90;;;;;;4974618;28;20570;-86
2020/12/18 03:12:28;;;;;;;28.75;16.80;;;6.30;99.90;;;;;;4956527;28;20035;-85
2020/12/18 03:14:54;;;;;;;28.88;15.68;;;6.30;99.90;;;;;;4956351;28;20474;-86
2020/12/18 03:17:20;;;;;;;36.45;18.42;;;6.20;99.90;;;;;;4956368;28;20495;-86
2020/12/18 03:19:55;;;;;;;30.92;16.75;;;6.20;99.90;;;;;;4973412;28;20097;-85
2020/12/18 03:22:20;;;;;;;29.88;16.35;;;6.40;99.90;;;;;;4956137;28;20026;-86
2020/12/18 03:24:52;;;;;;;30.75;15.68;;;6.40;99.90;;;;;;4973311;28;20348;-85
2020/12/18 03:27:18;;;;;;;26.88;14.95;;;6.20;99.90;;;;;;4972779;28;20027;-84
2020/12/18 03:29:43;;;;;;;32.28;16.42;;;6.20;99.90;;;;;;4955789;28;20114;-86
2020/12/18 03:32:09;;;;;;;28.67;15.07;;;6.10;99.90;;;;;;4973273;28;20381;-84
2020/12/18 03:34:35;;;;;;;27.73;15.48;;;6.10;99.90;;;;;;4955769;28;20027;-83
2020/12/18 03:37:01;;;;;;;29.67;16.00;;;6.10;99.90;;;;;;4955797;28;20023;-86
2020/12/18 03:39:26;;;;;;;32.03;14.82;;;6.20;99.90;;;;;;4969594;28;20047;-84
2020/12/18 03:41:58;;;;;;;31.13;15.27;;;6.10;99.90;;;;;;4974969;28;20113;-85
2020/12/18 03:44:24;;;;;;;24.92;14.05;;;6.10;99.90;;;;;;4992609;28;20072;-83
2020/12/18 03:46:50;;;;;;;26.25;15.43;;;6.10;99.90;;;;;;4974831;28;20049;-84
2020/12/18 03:49:16;;;;;;;27.70;15.10;;;6.20;99.90;;;;;;4975051;28;20456;-85
2020/12/18 03:51:41;;;;;;;29.05;15.15;;;6.20;99.90;;;;;;4992278;28;20054;-85
2020/12/18 03:54:07;;;;;;;26.63;15.70;;;6.20;99.90;;;;;;4992637;28;20026;-85
2020/12/18 03:56:33;;;;;;;28.75;15.57;;;6.20;99.90;;;;;;4992697;28;20585;-85
2020/12/18 03:59:02;;;;;;;23.98;14.25;;;6.10;99.90;;;;;;4975391;28;20026;-85
2020/12/18 04:01:37;;;;;;;30.98;16.58;;;6.10;99.90;;;;;;4974936;28;20081;-87
2020/12/18 04:04:02;;;;;;;27.88;15.77;;;6.00;99.90;;;;;;4993228;28;20026;-84
2020/12/18 04:06:28;;;;;;;26.00;15.35;;;6.00;99.90;;;;;;4974871;28;20037;-86
2020/12/18 04:08:57;;;;;;;33.60;16.20;;;6.10;99.90;;;;;;4996428;28;20459;-84
2020/12/18 04:11:28;;;;;;;24.75;13.90;;;6.00;99.90;;;;;;4979075;28;20022;-84
2020/12/18 04:13:54;;;;;;;30.02;15.65;;;5.90;99.90;;;;;;4978921;28;20030;-85
2020/12/18 04:16:26;;;;;;;32.13;15.60;;;6.00;99.90;;;;;;4978504;28;20037;-85
2020/12/18 04:18:52;;;;;;;30.70;16.20;;;5.90;99.90;;;;;;4995999;28;20097;-86
2020/12/18 04:21:17;;;;;;;27.80;14.55;;;6.00;99.90;;;;;;4978481;28;20037;-87
2020/12/18 04:23:43;;;;;;;27.73;15.32;;;5.90;99.90;;;;;;4995661;28;20030;-87
2020/12/18 04:26:10;;;;;;;26.50;15.50;;;5.90;99.90;;;;;;4978086;28;20026;-87
2020/12/18 04:28:36;;;;;;;27.10;14.73;;;5.90;99.90;;;;;;4995931;28;20022;-86
2020/12/18 04:31:02;;;;;;;27.63;14.25;;;5.80;99.90;;;;;;4978915;28;20117;-86
2020/12/18 04:33:28;;;;;;;28.60;16.00;;;5.90;99.90;;;;;;4978733;28;20026;-87
2020/12/18 04:35:53;;;;;;;26.35;14.93;;;5.80;99.90;;;;;;4978439;28;20113;-87
2020/12/18 04:38:19;;;;;;;25.58;15.32;;;5.70;99.90;;;;;;4996304;28;20057;-87
2020/12/18 04:40:45;;;;;;;30.55;16.15;;;5.70;99.90;;;;;;4978585;28;20026;-87
2020/12/18 04:43:11;;;;;;;28.70;14.52;;;5.70;99.90;;;;;;4996108;28;20058;-85
2020/12/18 04:45:37;;;;;;;29.40;15.90;;;5.70;99.90;;;;;;4978495;28;20085;-86
2020/12/18 04:48:07;;;;;;;26.08;14.30;;;5.70;99.90;;;;;;4995615;28;20027;-87
2020/12/18 04:50:33;;;;;;;27.48;15.40;;;5.80;99.90;;;;;;4994983;28;20026;-86
2020/12/18 04:53:01;;;;;;;26.45;14.63;;;5.70;99.90;;;;;;4977986;28;20038;-86
2020/12/18 04:55:33;;;;;;;25.63;14.57;;;5.80;99.90;;;;;;4977847;28;20057;-86
2020/12/18 04:58:06;;;;;;;26.55;15.50;;;5.80;99.90;;;;;;4995121;28;20378;-86
2020/12/18 05:00:34;;;;;;;29.73;15.55;;;5.80;99.90;;;;;;4977448;28;20161;-85
2020/12/18 05:03:01;;;;;;;25.25;15.88;;;5.80;99.90;;;;;;4977511;28;20434;-86
2020/12/18 05:05:27;;;;;;;24.17;14.07;;;5.90;99.90;;;;;;4977199;28;20029;-85
2020/12/18 05:07:58;;;;;;;33.30;16.42;;;5.80;99.90;;;;;;4994892;28;20034;-86
2020/12/18 05:10:24;;;;;;;27.90;15.60;;;5.70;99.90;;;;;;4993268;28;20101;-84
2020/12/18 05:12:50;;;;;;;25.23;14.93;;;5.80;99.90;;;;;;4975727;28;20027;-85
2020/12/18 05:15:19;;;;;;;32.50;16.35;;;5.80;99.90;;;;;;4958661;28;20037;-88
2020/12/18 05:17:47;;;;;;;29.48;16.58;;;5.70;99.90;;;;;;4958171;28;20047;-86
2020/12/18 05:20:27;;;;;;;27.90;15.52;;;5.80;99.90;;;;;;4958647;28;20479;-88
2020/12/18 05:22:54;;;;;;;28.35;15.85;;;5.90;99.90;;;;;;4958373;28;20039;-87
2020/12/18 05:25:20;;;;;;;31.40;16.35;;;5.70;99.90;;;;;;4958478;28;20027;-87
2020/12/18 05:27:49;;;;;;;29.20;14.55;;;5.80;99.90;;;;;;4958152;28;20034;-88
2020/12/18 05:30:22;;;;;;;26.50;15.35;;;6.00;99.90;;;;;;4958157;28;20031;-87
2020/12/18 05:32:53;;;;;;;25.80;15.45;;;5.80;99.90;;;;;;4958250;28;20023;-85
2020/12/18 05:35:30;;;;;;;29.50;16.27;;;5.70;99.90;;;;;;4957767;28;20030;-85
2020/12/18 05:37:57;;;;;;;27.70;14.98;;;5.90;99.90;;;;;;4976363;28;20046;-85
2020/12/18 05:40:23;;;;;;;32.30;16.52;;;5.90;99.90;;;;;;4977130;28;20059;-86
2020/12/18 05:42:48;;;;;;;28.15;15.85;;;5.90;99.90;;;;;;4994171;28;20037;-85
2020/12/18 05:45:19;;;;;;;27.65;14.90;;;5.80;99.90;;;;;;4976454;28;20394;-83
2020/12/18 05:48:01;;;;;;;32.00;16.00;;;5.60;99.90;;;;;;4994282;28;20382;-84
2020/12/18 05:50:33;;;;;;;30.15;15.80;;;5.60;99.90;;;;;;4977220;28;20092;-88
2020/12/18 05:53:11;;;;;;;30.23;15.43;;;5.60;99.90;;;;;;4977137;28;20022;-87
2020/12/18 05:55:39;;;;;;;31.70;15.05;;;5.60;99.90;;;;;;4993980;28;20026;-86
2020/12/18 05:58:05;;;;;;;28.60;15.73;;;5.50;99.90;;;;;;4976019;28;20038;-84
2020/12/18 06:00:37;;;;;;;28.98;15.55;;;5.60;99.90;;;;;;4994278;28;20034;-85
2020/12/18 06:03:09;;;;;;;36.10;16.15;;;5.70;99.90;;;;;;4976968;28;20034;-85
2020/12/18 06:05:38;;;;;;;29.15;15.80;;;5.80;99.90;;;;;;4976184;28;20363;-85
2020/12/18 06:08:16;;;;;;;28.90;15.60;;;6.00;99.90;;;;;;4976315;28;20080;-86
2020/12/18 06:10:44;;;;;;;27.67;16.10;;;5.90;99.90;;;;;;4976714;28;20079;-85
2020/12/18 06:13:10;;;;;;;28.10;15.20;;;6.00;99.90;;;;;;4976130;28;20033;-85
2020/12/18 06:15:40;;;;;;;34.63;17.85;;;5.90;99.90;;;;;;4977248;28;20034;-90
2020/12/18 06:18:16;;;;;;;34.25;17.63;;;6.10;99.90;;;;;;4977224;28;20060;-89
2020/12/18 06:21:12;;;;;;;31.52;15.20;;;6.10;99.90;;;;;;4977035;28;20394;-85
2020/12/18 06:24:00;;;;;;;36.58;18.95;;;6.00;99.90;;;;;;4976380;28;20030;-91
2020/12/18 06:26:27;;;;;;;32.60;18.58;;;6.00;99.90;;;;;;4977534;28;20029;-92
2020/12/18 06:29:00;;;;;;;142.50;69.93;;;6.20;99.90;;;;;;4977200;28;20022;-90
2020/12/18 06:31:45;;;;;;;27.50;15.38;;;6.70;99.90;;;;;;4975586;28;20061;-83
2020/12/18 06:34:28;;;;;;;27.90;15.38;;;6.00;99.90;;;;;;4975920;28;20080;-85
2020/12/18 06:36:59;;;;;;;24.33;13.95;;;6.00;99.90;;;;;;4968354;28;20038;-84
2020/12/18 06:39:31;;;;;;;23.63;13.70;;;5.70;99.90;;;;;;4986674;28;20051;-85
2020/12/18 06:42:22;;;;;;;21.48;12.75;;;5.80;99.90;;;;;;4975503;28;20382;-83
2020/12/18 06:44:53;;;;;;;24.58;12.77;;;5.60;99.90;;;;;;4975811;28;20069;-83
2020/12/18 06:47:38;;;;;;;23.92;13.23;;;5.80;99.90;;;;;;4975413;28;20050;-84
2020/12/18 06:50:16;;;;;;;24.15;12.70;;;5.60;99.90;;;;;;4975751;28;20482;-85
2020/12/18 06:52:53;;;;;;;19.67;12.27;;;5.60;99.90;;;;;;4975222;28;20049;-84
2020/12/18 06:55:25;;;;;;;21.27;13.02;;;5.60;99.90;;;;;;4990554;28;20421;-84
2020/12/18 06:58:11;;;;;;;27.50;12.80;;;5.60;99.90;;;;;;4990708;28;20334;-86
2020/12/18 07:00:49;;;;;;;21.27;12.40;;;5.70;99.90;;;;;;4995510;28;20366;-87
2020/12/18 07:03:35;;;;;;;21.27;13.40;;;5.80;99.90;;;;;;4979897;28;20121;-89
2020/12/18 07:06:21;;;;;;;33.42;17.90;;;5.50;99.90;;;;;;4975707;28;20031;-88
2020/12/18 07:08:47;;;;;;;23.48;14.20;;;5.60;99.90;;;;;;4976793;28;20482;-90
2020/12/18 07:11:15;;;;;;;27.50;14.02;;;6.10;99.90;;;;;;4979919;28;20037;-84
2020/12/18 07:13:53;;;;;;;26.42;14.70;;;5.90;99.90;;;;;;5011469;28;20544;-87
2020/12/18 07:16:21;;;;;;;28.63;14.90;;;5.90;99.90;;;;;;4994985;28;20108;-86
2020/12/18 07:18:49;;;;;;;27.38;14.30;;;5.60;99.90;;;;;;4994779;28;20038;-85
2020/12/18 07:21:17;;;;;;;24.38;13.43;;;5.60;99.90;;;;;;5012686;28;20080;-86
2020/12/18 07:23:57;;;;;;;24.77;13.90;;;5.70;99.90;;;;;;4995074;28;20434;-87
2020/12/18 07:26:23;;;;;;;25.47;13.93;;;5.90;99.90;;;;;;4994707;28;20113;-86
2020/12/18 07:28:56;;;;;;;27.63;14.55;;;6.10;99.90;;;;;;4994301;28;20164;-87
2020/12/18 07:31:31;;;;;;;29.05;14.82;;;5.80;99.90;;;;;;4994168;28;20026;-87
2020/12/18 07:34:11;;;;;;;;;;;;;;;;;;;;;
2020/12/18 07:37:15;;;;;;;29.67;15.05;;;5.90;99.90;;;;;;5010431;28;20049;-85
2020/12/18 07:39:41;;;;;;;29.13;15.57;;;6.00;99.90;;;;;;4991334;28;20073;-85
2020/12/18 07:42:08;;;;;;;24.98;13.38;;;6.20;99.90;;;;;;4985123;28;20062;-84
2020/12/18 07:44:34;;;;;;;25.08;14.35;;;5.70;99.90;;;;;;4978895;28;20037;-85
2020/12/18 07:47:11;;;;;;;28.88;15.98;;;5.70;99.90;;;;;;4978697;28;20030;-85
2020/12/18 07:49:37;;;;;;;27.10;15.73;;;5.80;99.90;;;;;;4978973;28;20137;-86
2020/12/18 07:52:22;;;;;;;26.95;14.38;;;5.90;99.90;;;;;;4979054;28;20125;-85
2020/12/18 07:54:54;;;;;;;24.55;13.55;;;5.90;99.90;;;;;;4995895;28;20025;-84
2020/12/18 07:57:21;;;;;;;26.05;13.30;;;5.80;99.90;;;;;;5009305;28;20044;-85
2020/12/18 07:59:46;;;;;;;23.60;13.13;;;6.00;99.90;;;;;;4998546;28;20029;-86
2020/12/18 08:05:45;;;;;;;23.52;12.80;;;5.70;99.90;;;;;;4955235;29;20448;-86
2020/12/18 08:11:52;;;;;;;23.42;14.00;;;5.60;99.90;;;;;;4873736;29;20085;-87
2020/12/18 08:15:10;;;;;;;25.05;14.10;;;5.50;99.90;;;;;;4845572;29;20058;-89
2020/12/18 08:17:37;;;;;;;24.67;13.30;;;5.70;99.90;;;;;;4896734;29;20051;-86
2020/12/18 08:20:06;;;;;;;24.27;13.02;;;5.80;99.90;;;;;;4900874;29;20036;-87
2020/12/18 08:22:46;;;;;;;29.23;14.85;;;5.80;99.90;;;;;;4901140;29;20111;-85
2020/12/18 08:25:15;;;;;;;24.23;13.35;;;5.70;99.90;;;;;;4916773;29;20032;-87
2020/12/18 08:28:05;;;;;;;23.95;14.02;;;5.70;99.90;;;;;;4931141;28;20459;-84
2020/12/18 08:30:32;;;;;;;28.08;14.40;;;6.10;99.90;;;;;;4977501;28;20019;-85
2020/12/18 08:33:29;;;;;;;24.58;13.73;;;6.10;99.90;;;;;;4995283;28;20041;-85
2020/12/18 08:35:56;;;;;;;28.52;14.35;;;5.70;99.90;;;;;;4977500;28;20021;-85
2020/12/18 08:38:30;;;;;;;26.35;13.55;;;6.00;99.90;;;;;;4995096;28;20437;-86
2020/12/18 08:40:57;;;;;;;26.63;15.00;;;5.70;99.90;;;;;;4995588;28;20062;-87
2020/12/18 08:43:23;;;;;;;29.83;16.08;;;6.10;99.90;;;;;;4976190;28;20042;-86
2020/12/18 08:45:49;;;;;;;29.52;15.18;;;6.00;99.90;;;;;;4977567;28;20058;-83
2020/12/18 08:48:26;;;;;;;25.75;15.45;;;6.10;99.90;;;;;;4961091;28;20038;-85
2020/12/18 08:51:02;;;;;;;29.90;16.35;;;6.20;99.90;;;;;;4977370;28;20038;-86
2020/12/18 08:53:35;;;;;;;26.38;15.15;;;6.00;99.90;;;;;;4994134;28;20445;-84
2020/12/18 08:56:20;;;;;;;32.65;15.32;;;6.10;99.90;;;;;;4996465;28;20041;-85
2020/12/18 08:58:46;;;;;;;27.05;13.98;;;5.90;99.90;;;;;;4977335;28;20023;-84
2020/12/18 09:01:24;;;;;;;27.35;13.45;;;5.90;99.90;;;;;;4977443;28;20026;-84
2020/12/18 09:03:50;;;;;;;24.88;13.20;;;5.80;99.90;;;;;;4977352;28;20036;-84
2020/12/18 09:06:16;;;;;;;29.17;14.88;;;5.80;99.90;;;;;;4967746;28;20027;-85
2020/12/18 09:08:42;;;;;;;28.45;13.43;;;5.70;99.90;;;;;;4993725;28;20473;-85
2020/12/18 09:11:24;;;;;;;26.65;14.02;;;5.80;99.90;;;;;;4977284;28;20076;-85
2020/12/18 09:14:05;;;;;;;25.58;14.43;;;6.00;99.90;;;;;;4976857;28;20026;-84
2020/12/18 09:16:31;;;;;;;29.85;15.05;;;6.00;99.90;;;;;;4994670;28;20034;-85
2020/12/18 09:19:03;;;;;;;28.02;14.63;;;5.90;99.90;;;;;;4994368;28;20085;-87
2020/12/18 09:21:35;;;;;;;30.50;15.52;;;6.10;99.90;;;;;;4976836;28;20022;-84
2020/12/18 09:24:00;;;;;;;30.60;14.85;;;6.30;99.90;;;;;;5004512;28;20034;-88
2020/12/18 09:26:31;;;;;;;28.33;16.55;;;6.30;99.90;;;;;;4991536;28;20029;-86
2020/12/18 09:29:17;;;;;;;30.88;15.93;;;6.20;99.90;;;;;;4994002;28;20097;-85
2020/12/18 09:31:43;;;;;;;29.38;14.70;;;6.50;99.90;;;;;;4993044;28;20029;-85
2020/12/18 09:34:21;;;;;;;31.75;16.08;;;6.50;99.90;;;;;;5001417;22;20414;-85
2020/12/18 09:36:47;;;;;;;26.50;14.55;;;6.20;99.90;;;;;;4992869;28;20027;-85
2020/12/18 09:39:16;;;;;;;27.67;15.40;;;6.40;99.90;;;;;;4993068;28;20044;-86
2020/12/18 09:41:43;;;;;;;29.67;15.65;;;6.70;99.90;;;;;;4994412;28;20015;-87
2020/12/18 09:44:09;;;;;;;27.65;15.32;;;6.50;99.90;;;;;;4976178;28;20403;-87
2020/12/18 09:46:35;;;;;;;30.92;15.10;;;6.20;99.90;;;;;;4994013;28;20081;-84
2020/12/18 09:49:00;;;;;;;24.15;14.50;;;6.40;99.90;;;;;;4992835;28;20465;-86
2020/12/18 09:51:26;;;;;;;30.80;15.52;;;6.20;99.90;;;;;;4992248;28;20026;-86
2020/12/18 09:53:58;;;;;;;25.33;14.95;;;6.40;99.90;;;;;;4992959;28;20033;-83
2020/12/18 09:56:24;;;;;;;30.10;15.50;;;6.30;99.90;;;;;;4993571;28;20041;-83
2020/12/18 09:58:50;;;;;;;28.20;15.57;;;6.30;99.90;;;;;;4993365;28;20026;-83
2020/12/18 10:01:17;;;;;;;25.35;14.43;;;6.40;99.90;;;;;;4993626;28;20367;-83
2020/12/18 10:04:01;;;;;;;24.70;14.20;;;6.50;99.90;;;;;;4992565;28;20027;-86
2020/12/18 10:06:27;;;;;;;24.38;13.60;;;6.50;99.90;;;;;;4990806;28;20496;-85
2020/12/18 10:09:08;;;;;;;23.10;12.88;;;6.90;99.90;;;;;;4992847;28;20450;-86
2020/12/18 10:11:34;;;;;;;24.23;13.68;;;7.10;99.90;;;;;;4992302;28;20022;-84
2020/12/18 10:14:00;;;;;;;24.55;13.52;;;7.00;99.90;;;;;;4993785;28;20030;-84
2020/12/18 10:16:25;;;;;;;24.40;13.90;;;6.60;99.90;;;;;;4991896;28;20422;-85
2020/12/18 10:18:54;;;;;;;25.63;13.43;;;6.60;99.90;;;;;;4991616;28;20458;-85
2020/12/18 10:21:22;;;;;;;24.58;13.50;;;6.50;99.90;;;;;;4992580;28;20366;-87
2020/12/18 10:23:54;;;;;;;23.05;13.57;;;6.80;99.90;;;;;;4992690;28;20057;-86
2020/12/18 10:26:22;;;;;;;23.83;13.90;;;7.50;99.90;;;;;;4992183;28;20479;-87
2020/12/18 10:28:48;;;;;;;27.88;13.75;;;7.20;99.90;;;;;;4992044;28;20050;-83
2020/12/18 10:31:14;;;;;;;29.55;15.40;;;7.10;99.90;;;;;;4992322;28;20061;-82
2020/12/18 10:33:43;;;;;;;24.63;14.25;;;7.10;99.90;;;;;;4992103;28;20101;-86
2020/12/18 10:36:10;;;;;;;30.33;13.73;;;6.80;99.90;;;;;;4989605;28;20042;-85
2020/12/18 10:38:36;;;;;;;25.90;14.13;;;6.80;99.90;;;;;;4991584;28;20436;-85
2020/12/18 10:41:02;;;;;;;27.83;14.43;;;6.80;99.90;;;;;;4992683;28;20536;-84
2020/12/18 10:43:28;;;;;;;26.42;14.98;;;6.50;99.90;;;;;;4992088;28;20163;-84
2020/12/18 10:45:53;;;;;;;25.13;14.25;;;6.60;99.90;;;;;;4991101;28;20015;-84
2020/12/18 10:48:19;;;;;;;24.10;13.52;;;6.60;99.90;;;;;;4991467;28;20023;-83
2020/12/18 10:50:51;;;;;;;29.17;15.23;;;6.80;99.90;;;;;;4992575;28;20470;-82
2020/12/18 10:53:17;;;;;;;30.05;15.10;;;6.90;99.90;;;;;;4998197;28;20029;-88
2020/12/18 10:55:42;;;;;;;27.90;14.95;;;6.90;99.90;;;;;;4992633;28;20026;-83
2020/12/18 10:58:17;;;;;;;26.65;14.63;;;7.00;99.90;;;;;;4991093;28;20038;-86
2020/12/18 11:04:40;;;;;;;24.75;14.13;;;7.10;99.90;;;;;;4929740;29;20143;-86
2020/12/18 11:07:10;;;;;;;25.33;11.80;;;7.20;99.90;;;;;;4929069;29;20635;-89
2020/12/18 11:09:43;;;;;;;25.00;14.32;;;7.20;99.90;;;;;;5008591;28;20374;-87
2020/12/18 11:12:09;;;;;;;25.75;13.38;;;7.00;99.90;;;;;;5002121;28;20129;-86
2020/12/18 11:14:38;;;;;;;28.13;13.98;;;7.00;99.90;;;;;;4990295;28;20113;-87
2020/12/18 11:17:05;;;;;;;25.33;13.40;;;7.00;99.90;;;;;;4989657;28;20759;-86
2020/12/18 11:19:31;;;;;;;26.10;13.95;;;6.70;99.90;;;;;;4987711;28;20034;-88
2020/12/18 11:22:03;;;;;;;24.65;14.50;;;6.50;99.90;;;;;;4988774;28;20080;-86
2020/12/18 11:24:37;;;;;;;27.45;15.55;;;6.80;99.90;;;;;;4989590;28;20022;-87
2020/12/18 11:27:06;;;;;;;32.17;16.25;;;6.90;99.90;;;;;;4988349;28;20034;-83
2020/12/18 11:29:37;;;;;;;26.98;14.02;;;7.00;99.90;;;;;;4992243;28;20084;-86
2020/12/18 11:32:03;;;;;;;25.13;13.52;;;6.80;99.90;;;;;;4988298;28;20474;-86
2020/12/18 11:34:29;;;;;;;29.02;14.50;;;6.80;99.90;;;;;;4987954;28;20046;-89
2020/12/18 11:36:56;;;;;;;25.33;14.23;;;7.00;99.90;;;;;;4988032;28;20054;-83
2020/12/18 11:39:22;;;;;;;23.48;13.85;;;7.40;99.90;;;;;;4988862;28;20438;-84
2020/12/18 11:41:48;;;;;;;21.00;13.25;;;7.60;99.90;;;;;;4973136;28;20034;-85
2020/12/18 11:44:16;;;;;;;24.40;13.60;;;7.00;99.90;;;;;;4973157;28;20030;-85
2020/12/18 11:46:52;;;;;;;21.10;12.63;;;7.00;99.90;;;;;;4973303;28;20038;-87
2020/12/18 11:49:18;;;;;;;24.50;13.45;;;7.30;99.90;;;;;;4990358;28;20031;-86
2020/12/18 11:51:44;;;;;;;23.45;13.40;;;7.20;99.90;;;;;;4973585;28;20034;-86
2020/12/18 11:54:10;;;;;;;19.92;13.02;;;7.20;99.90;;;;;;4989407;28;20042;-85
2020/12/18 11:56:35;;;;;;;27.02;12.55;;;7.40;99.90;;;;;;4972166;28;20078;-86
2020/12/18 11:59:01;;;;;;;24.98;13.15;;;7.40;99.90;;;;;;4989031;28;20105;-87
2020/12/18 12:01:29;;;;;;;25.52;12.68;;;7.10;99.90;;;;;;4973392;28;20406;-86
2020/12/18 12:03:54;;;;;;;27.83;13.80;;;7.00;99.90;;;;;;4987311;28;20062;-82
2020/12/18 12:06:21;;;;;;;25.45;12.90;;;7.00;99.90;;;;;;4990427;28;20061;-84
2020/12/18 12:08:47;;;;;;;24.38;13.32;;;6.70;99.90;;;;;;4990369;28;20033;-86
2020/12/18 12:11:15;;;;;;;23.50;12.18;;;6.90;99.90;;;;;;4989996;28;20030;-85
2020/12/18 12:13:42;;;;;;;25.00;14.05;;;6.70;99.90;;;;;;4990153;28;20405;-85
2020/12/18 12:16:08;;;;;;;23.85;13.45;;;6.70;99.90;;;;;;4991434;28;20387;-86
2020/12/18 12:18:34;;;;;;;24.77;14.05;;;6.70;99.90;;;;;;4989716;28;20030;-85
2020/12/18 12:21:00;;;;;;;25.60;13.23;;;6.80;99.90;;;;;;4989830;28;20511;-87
2020/12/18 12:23:26;;;;;;;24.05;13.05;;;6.80;99.90;;;;;;4989598;28;20035;-84
2020/12/18 12:25:52;;;;;;;24.08;13.45;;;6.60;99.90;;;;;;4990157;28;20026;-84
2020/12/18 12:28:19;;;;;;;23.15;13.68;;;6.90;99.90;;;;;;4992436;28;20473;-84
2020/12/18 12:30:44;;;;;;;26.80;13.00;;;7.10;99.90;;;;;;4994683;28;20076;-85
2020/12/18 12:33:10;;;;;;;21.85;13.13;;;7.20;99.90;;;;;;4993256;28;20026;-84
2020/12/18 12:35:37;;;;;;;23.98;13.38;;;7.40;99.90;;;;;;4993149;28;20054;-85
2020/12/18 12:38:06;;;;;;;23.50;13.48;;;7.40;99.90;;;;;;4993939;28;20045;-84
2020/12/18 12:40:32;;;;;;;19.60;12.27;;;7.30;99.90;;;;;;4992088;28;20026;-84
2020/12/18 12:42:58;;;;;;;26.70;14.27;;;7.30;99.90;;;;;;4992929;28;20031;-82
2020/12/18 12:45:24;;;;;;;25.42;13.43;;;7.20;99.90;;;;;;4994198;28;20537;-84
2020/12/18 12:47:50;;;;;;;24.67;14.15;;;7.40;99.90;;;;;;4994639;28;20038;-85
2020/12/18 12:50:15;;;;;;;23.23;13.48;;;6.90;99.90;;;;;;4992741;28;20033;-84
2020/12/18 12:52:41;;;;;;;23.02;11.95;;;6.80;99.90;;;;;;4992871;28;20081;-86
2020/12/18 12:55:07;;;;;;;25.88;13.98;;;6.70;99.90;;;;;;4993198;28;20476;-85
2020/12/18 12:57:33;;;;;;;20.90;12.45;;;6.70;99.90;;;;;;4993056;28;20620;-86
2020/12/18 12:59:59;;;;;;;28.50;13.93;;;6.80;99.90;;;;;;4993875;28;20551;-86
2020/12/18 13:02:24;;;;;;;25.92;14.15;;;6.90;99.90;;;;;;4992814;28;20410;-86